« 定点 富山空港 2019/7/17 wed | トップページ | 定点 富山空港 2019/7/24 wed »

2019/07/20

定点 富山空港 2019/7/20 sat

今日は早朝活動

RJNT 192200Z VRB01KT 9999 -SHRA SCT003 BKN100 BKN150 24/23 Q1014

20190720_rjnt_00river

河原は朝靄に包まれて、水墨画の世界

20190720_rjnt_01ja138a

始発便はミルクの中から浮上します。

20190720_rjnt_02ja138a

ANA312 RJNT-RJTT JA138A A321-272N

20190720_rjnt_03ja138a

静かで心地よい音を響かせています。

RJNT 192300Z VRB01KT 9999 -SHRA BR FEW002 SCT005 BKN100 24/24 Q1014

20190720_rjnt_04ja13fj

本日のお客様

20190720_rjnt_05ja13fj

FDA9771 RJNS-RJNT JA13FJ ERJ-175STD

20190720_rjnt_06ja13fj

リバーサイドブルー

20190720_rjnt_07ja80an

薄くベイパーを引いています。

20190720_rjnt_08ja80an

ANA313 RJTT-RJNT JA80AN B737-881

20190720_rjnt_09fda

20190720_rjnt_10fda

今日は稚内行き また行きたいなぁ

RJNT 192300Z VRB01KT 9999 -SHRA BR FEW002 SCT005 BKN100 24/24 Q1014

20190720_rjnt_11ja13fj

お手ふりぃぃぃぃ

20190720_rjnt_12ja13fj

一際人が多いです。

20190720_rjnt_13ja13fj

FDA6591 RJNT-RJCW JA13FJ ERJ-175STD

20190720_rjnt_14ja13fj

軽快な音を響かせて

20190720_rjnt_15ja13fj

いってらっしゃーい

20190720_rjnt_16ja80an

おぅけい

20190720_rjnt_17ja80an

20190720_rjnt_18ja80an

ANA316 RJNT-RJTT JA80AN B737-881

RJNT 192300Z VRB01KT 9999 -SHRA BR FEW002 SCT005 BKN100 24/24 Q1014

20190720_rjnt_19ja136a

315は長いヤツ

20190720_rjnt_20ja136a

20190720_rjnt_21ja136a

ANA315 RJTT-RJNT JA136A A321-272N

20190720_rjnt_22b6896

20190720_rjnt_23b6896

CSN613 ZYTL-RJNT B-6896 A320-232

20190720_rjnt_24b6896

RJNT 192300Z VRB01KT 9999 -SHRA BR FEW002 SCT005 BKN100 24/24 Q1014

20190720_rjnt_25ja10ym

今日もドクヘリさんがお仕事

20190720_rjnt_26ja10ym

JA10YM A109SP SAK 富山県ドクターへり 当番は高岡か

20190720_rjnt_27ja136a

20190720_rjnt_28ja136a

ANA1181 RJNT-RJCC JA136A A321-272N

20190720_rjnt_29ja136a

北海道に行きたいですね。

RJNT 200300Z VRB01KT 9999 -SHRA FEW020 BKN150 BKN/// 28/24 Q1014

20190720_rjnt_30b6896

20190720_rjnt_31b6896

CSN614 RJNT-ZYTL B-6896 A320-232

20190720_rjnt_32b6896

離陸はやっ

20190720_rjnt_33b5260

20190720_rjnt_34b5260

CSH825 ZSPD-RJNT B-5260 B737-76D

20190720_rjnt_35b5260

本日の活動はココまで B6が来ないかなぁ

|

« 定点 富山空港 2019/7/17 wed | トップページ | 定点 富山空港 2019/7/24 wed »

富山空港」カテゴリの記事

コメント

コメントを書く



(ウェブ上には掲載しません)


コメントは記事投稿者が公開するまで表示されません。



« 定点 富山空港 2019/7/17 wed | トップページ | 定点 富山空港 2019/7/24 wed »